sensor_id;sensor_type;location;lat;lon;timestamp;pressure;altitude;pressure_sealevel;temperature
62180;BMP280;48172;53.374;10.722;2022-12-16T00:01:13;101172.94;;;19.35
62180;BMP280;48172;53.374;10.722;2022-12-16T00:03:41;101171.53;;;19.30
62180;BMP280;48172;53.374;10.722;2022-12-16T00:06:09;101161.22;;;19.25
62180;BMP280;48172;53.374;10.722;2022-12-16T00:08:37;101165.56;;;19.23
62180;BMP280;48172;53.374;10.722;2022-12-16T00:11:05;101162.19;;;19.19
62180;BMP280;48172;53.374;10.722;2022-12-16T00:13:35;101166.53;;;19.16
62180;BMP280;48172;53.374;10.722;2022-12-16T00:16:07;101175.94;;;19.12
62180;BMP280;48172;53.374;10.722;2022-12-16T00:18:34;101174.84;;;19.09
62180;BMP280;48172;53.374;10.722;2022-12-16T00:21:00;101170.72;;;19.05
62180;BMP280;48172;53.374;10.722;2022-12-16T00:23:27;101171.59;;;19.02
62180;BMP280;48172;53.374;10.722;2022-12-16T00:25:55;101175.16;;;18.98
62180;BMP280;48172;53.374;10.722;2022-12-16T00:28:21;101176.00;;;18.95
62180;BMP280;48172;53.374;10.722;2022-12-16T00:30:52;101172.66;;;18.91
62180;BMP280;48172;53.374;10.722;2022-12-16T00:33:22;101173.81;;;18.90
62180;BMP280;48172;53.374;10.722;2022-12-16T00:35:50;101168.19;;;18.85
62180;BMP280;48172;53.374;10.722;2022-12-16T00:38:17;101184.84;;;18.83
62180;BMP280;48172;53.374;10.722;2022-12-16T00:40:44;101184.19;;;18.79
62180;BMP280;48172;53.374;10.722;2022-12-16T00:43:11;101188.94;;;18.75
62180;BMP280;48172;53.374;10.722;2022-12-16T00:45:38;101193.25;;;18.73
62180;BMP280;48172;53.374;10.722;2022-12-16T00:48:05;101184.91;;;18.67
62180;BMP280;48172;53.374;10.722;2022-12-16T00:50:33;101191.50;;;18.66
62180;BMP280;48172;53.374;10.722;2022-12-16T00:52:59;101194.31;;;18.62
62180;BMP280;48172;53.374;10.722;2022-12-16T00:55:26;101185.41;;;18.62
62180;BMP280;48172;53.374;10.722;2022-12-16T00:57:52;101186.28;;;18.59
62180;BMP280;48172;53.374;10.722;2022-12-16T01:00:20;101192.88;;;18.58
62180;BMP280;48172;53.374;10.722;2022-12-16T01:02:48;101190.28;;;18.54
62180;BMP280;48172;53.374;10.722;2022-12-16T01:05:17;101196.84;;;18.53
62180;BMP280;48172;53.374;10.722;2022-12-16T01:07:46;101194.28;;;18.50
62180;BMP280;48172;53.374;10.722;2022-12-16T01:10:14;101201.25;;;18.47
62180;BMP280;48172;53.374;10.722;2022-12-16T01:12:40;101196.69;;;18.44
62180;BMP280;48172;53.374;10.722;2022-12-16T01:15:08;101204.94;;;18.41
62180;BMP280;48172;53.374;10.722;2022-12-16T01:17:38;101208.91;;;18.36
62180;BMP280;48172;53.374;10.722;2022-12-16T01:20:05;101203.91;;;18.34
62180;BMP280;48172;53.374;10.722;2022-12-16T01:22:32;101205.50;;;18.32
62180;BMP280;48172;53.374;10.722;2022-12-16T01:25:00;101212.44;;;18.33
62180;BMP280;48172;53.374;10.722;2022-12-16T01:27:28;101205.28;;;18.26
62180;BMP280;48172;53.374;10.722;2022-12-16T01:29:55;101213.78;;;18.25
62180;BMP280;48172;53.374;10.722;2022-12-16T01:32:22;101207.28;;;18.22
62180;BMP280;48172;53.374;10.722;2022-12-16T01:34:52;101210.41;;;18.21
62180;BMP280;48172;53.374;10.722;2022-12-16T01:37:21;101217.75;;;18.20
62180;BMP280;48172;53.374;10.722;2022-12-16T01:39:48;101214.72;;;18.18
62180;BMP280;48172;53.374;10.722;2022-12-16T01:42:18;101217.94;;;18.13
62180;BMP280;48172;53.374;10.722;2022-12-16T01:44:47;101219.88;;;18.13
62180;BMP280;48172;53.374;10.722;2022-12-16T01:47:19;101221.16;;;18.08
62180;BMP280;48172;53.374;10.722;2022-12-16T01:49:53;101228.16;;;18.06
62180;BMP280;48172;53.374;10.722;2022-12-16T01:52:25;101228.56;;;18.04
62180;BMP280;48172;53.374;10.722;2022-12-16T01:54:58;101222.06;;;18.01
62180;BMP280;48172;53.374;10.722;2022-12-16T01:57:32;101228.66;;;18.00
62180;BMP280;48172;53.374;10.722;2022-12-16T02:00:04;101228.31;;;17.98
62180;BMP280;48172;53.374;10.722;2022-12-16T02:02:32;101221.81;;;17.96
62180;BMP280;48172;53.374;10.722;2022-12-16T02:04:59;101215.31;;;17.93
62180;BMP280;48172;53.374;10.722;2022-12-16T02:10:18;101220.44;;;17.88
62180;BMP280;48172;53.374;10.722;2022-12-16T02:13:03;101226.69;;;17.85
62180;BMP280;48172;53.374;10.722;2022-12-16T02:18:28;101221.78;;;17.80
62180;BMP280;48172;53.374;10.722;2022-12-16T02:21:06;101214.84;;;17.79
62180;BMP280;48172;53.374;10.722;2022-12-16T02:35:10;101234.44;;;17.66
62180;BMP280;48172;53.374;10.722;2022-12-16T02:41:00;101238.78;;;17.60
62180;BMP280;48172;53.374;10.722;2022-12-16T02:46:04;101238.88;;;17.57
62180;BMP280;48172;53.374;10.722;2022-12-16T02:48:32;101239.28;;;17.55
62180;BMP280;48172;53.374;10.722;2022-12-16T02:50:58;101237.00;;;17.54
62180;BMP280;48172;53.374;10.722;2022-12-16T02:53:25;101233.97;;;17.52
62180;BMP280;48172;53.374;10.722;2022-12-16T02:58:37;101246.78;;;17.48
62180;BMP280;48172;53.374;10.722;2022-12-16T03:01:36;101247.59;;;17.45
62180;BMP280;48172;53.374;10.722;2022-12-16T03:04:11;101247.59;;;17.45
62180;BMP280;48172;53.374;10.722;2022-12-16T03:06:39;101240.69;;;17.44
62180;BMP280;48172;53.374;10.722;2022-12-16T03:09:10;101245.72;;;17.42
62180;BMP280;48172;53.374;10.722;2022-12-16T03:11:39;101241.19;;;17.39
62180;BMP280;48172;53.374;10.722;2022-12-16T03:14:09;101241.97;;;17.35
62180;BMP280;48172;53.374;10.722;2022-12-16T03:16:38;101241.97;;;17.35
62180;BMP280;48172;53.374;10.722;2022-12-16T03:19:06;101241.66;;;17.33
62180;BMP280;48172;53.374;10.722;2022-12-16T03:21:40;101240.13;;;17.32
62180;BMP280;48172;53.374;10.722;2022-12-16T03:24:09;101243.22;;;17.31
62180;BMP280;48172;53.374;10.722;2022-12-16T03:31:56;101246.00;;;17.27
62180;BMP280;48172;53.374;10.722;2022-12-16T03:34:35;101247.59;;;17.25
62180;BMP280;48172;53.374;10.722;2022-12-16T03:37:07;101261.94;;;17.22
62180;BMP280;48172;53.374;10.722;2022-12-16T03:39:41;101255.75;;;17.21
62180;BMP280;48172;53.374;10.722;2022-12-16T03:42:10;101253.06;;;17.21
62180;BMP280;48172;53.374;10.722;2022-12-16T03:44:38;101253.47;;;17.20
62180;BMP280;48172;53.374;10.722;2022-12-16T03:47:04;101262.00;;;17.18
62180;BMP280;48172;53.374;10.722;2022-12-16T03:49:31;101258.19;;;17.16
62180;BMP280;48172;53.374;10.722;2022-12-16T03:51:57;101251.69;;;17.13
62180;BMP280;48172;53.374;10.722;2022-12-16T03:54:24;101250.91;;;17.13
62180;BMP280;48172;53.374;10.722;2022-12-16T03:56:51;101254.78;;;17.12
62180;BMP280;48172;53.374;10.722;2022-12-16T03:59:17;101260.59;;;17.10
62180;BMP280;48172;53.374;10.722;2022-12-16T04:01:44;101258.31;;;17.09
62180;BMP280;48172;53.374;10.722;2022-12-16T04:04:11;101261.44;;;17.07
62180;BMP280;48172;53.374;10.722;2022-12-16T04:06:37;101255.28;;;17.07
62180;BMP280;48172;53.374;10.722;2022-12-16T04:09:05;101263.03;;;17.04
62180;BMP280;48172;53.374;10.722;2022-12-16T04:11:32;101258.81;;;17.03
62180;BMP280;48172;53.374;10.722;2022-12-16T04:14:17;101258.03;;;17.03
62180;BMP280;48172;53.374;10.722;2022-12-16T04:17:03;101254.22;;;17.00
62180;BMP280;48172;53.374;10.722;2022-12-16T04:19:48;101258.16;;;16.96
62180;BMP280;48172;53.374;10.722;2022-12-16T04:22:37;101265.50;;;16.95
62180;BMP280;48172;53.374;10.722;2022-12-16T04:25:30;101260.47;;;16.94
62180;BMP280;48172;53.374;10.722;2022-12-16T04:27:57;101252.84;;;16.92
62180;BMP280;48172;53.374;10.722;2022-12-16T04:30:24;101257.47;;;16.92
62180;BMP280;48172;53.374;10.722;2022-12-16T04:32:56;101260.56;;;16.90
62180;BMP280;48172;53.374;10.722;2022-12-16T04:35:42;101264.09;;;16.87
62180;BMP280;48172;53.374;10.722;2022-12-16T04:38:27;101261.41;;;16.87
62180;BMP280;48172;53.374;10.722;2022-12-16T04:41:12;101258.31;;;16.85
62180;BMP280;48172;53.374;10.722;2022-12-16T04:43:58;101258.75;;;16.84
62180;BMP280;48172;53.374;10.722;2022-12-16T04:46:43;101252.25;;;16.81
62180;BMP280;48172;53.374;10.722;2022-12-16T04:49:28;101253.41;;;16.80
62180;BMP280;48172;53.374;10.722;2022-12-16T04:52:13;101246.94;;;16.78
62180;BMP280;48172;53.374;10.722;2022-12-16T04:54:59;101248.88;;;16.77
62180;BMP280;48172;53.374;10.722;2022-12-16T04:57:51;101245.78;;;16.75
62180;BMP280;48172;53.374;10.722;2022-12-16T05:00:36;101258.19;;;16.72
62180;BMP280;48172;53.374;10.722;2022-12-16T05:03:22;101266.66;;;16.71
62180;BMP280;48172;53.374;10.722;2022-12-16T05:06:07;101269.78;;;16.69
62180;BMP280;48172;53.374;10.722;2022-12-16T05:08:53;101278.63;;;16.70
62180;BMP280;48172;53.374;10.722;2022-12-16T05:11:38;101283.31;;;16.66
62180;BMP280;48172;53.374;10.722;2022-12-16T05:14:23;101283.31;;;16.66
62180;BMP280;48172;53.374;10.722;2022-12-16T05:17:10;101279.91;;;16.62
62180;BMP280;48172;53.374;10.722;2022-12-16T05:19:55;101288.81;;;16.62
62180;BMP280;48172;53.374;10.722;2022-12-16T05:22:40;101290.72;;;16.62
62180;BMP280;48172;53.374;10.722;2022-12-16T05:25:25;101287.66;;;16.60
62180;BMP280;48172;53.374;10.722;2022-12-16T05:28:10;101295.41;;;16.58
62180;BMP280;48172;53.374;10.722;2022-12-16T05:30:55;101304.25;;;16.58
62180;BMP280;48172;53.374;10.722;2022-12-16T05:33:40;101304.72;;;16.53
62180;BMP280;48172;53.374;10.722;2022-12-16T05:36:26;101311.28;;;16.52
62180;BMP280;48172;53.374;10.722;2022-12-16T05:39:11;101309.00;;;16.51
62180;BMP280;48172;53.374;10.722;2022-12-16T05:41:56;101317.84;;;16.51
62180;BMP280;48172;53.374;10.722;2022-12-16T05:44:41;101308.66;;;16.49
62180;BMP280;48172;53.374;10.722;2022-12-16T05:47:26;101313.69;;;16.47
62180;BMP280;48172;53.374;10.722;2022-12-16T05:50:12;101312.16;;;16.46
62180;BMP280;48172;53.374;10.722;2022-12-16T05:52:57;101311.81;;;16.44
62180;BMP280;48172;53.374;10.722;2022-12-16T05:55:42;101310.63;;;16.45
62180;BMP280;48172;53.374;10.722;2022-12-16T05:58:28;101319.09;;;16.43
62180;BMP280;48172;53.374;10.722;2022-12-16T06:01:13;101324.09;;;16.45
62180;BMP280;48172;53.374;10.722;2022-12-16T06:03:59;101318.72;;;16.45
62180;BMP280;48172;53.374;10.722;2022-12-16T06:06:44;101322.94;;;16.46
62180;BMP280;48172;53.374;10.722;2022-12-16T06:09:29;101325.19;;;16.51
62180;BMP280;48172;53.374;10.722;2022-12-16T06:12:21;101322.81;;;16.53
62180;BMP280;48172;53.374;10.722;2022-12-16T06:15:06;101328.94;;;16.57
62180;BMP280;48172;53.374;10.722;2022-12-16T06:17:51;101331.53;;;16.64
62180;BMP280;48172;53.374;10.722;2022-12-16T06:20:36;101329.88;;;16.70
62180;BMP280;48172;53.374;10.722;2022-12-16T06:23:21;101344.81;;;16.78
62180;BMP280;48172;53.374;10.722;2022-12-16T06:26:07;101343.13;;;16.88
62180;BMP280;48172;53.374;10.722;2022-12-16T06:28:52;101351.44;;;16.97
62180;BMP280;48172;53.374;10.722;2022-12-16T06:31:37;101357.84;;;17.07
62180;BMP280;48172;53.374;10.722;2022-12-16T06:34:22;101366.16;;;17.16
62180;BMP280;48172;53.374;10.722;2022-12-16T06:37:07;101369.88;;;17.25
62180;BMP280;48172;53.374;10.722;2022-12-16T06:39:52;101373.91;;;17.37
62180;BMP280;48172;53.374;10.722;2022-12-16T06:42:40;101381.84;;;17.48
62180;BMP280;48172;53.374;10.722;2022-12-16T06:45:26;101377.41;;;17.57
62180;BMP280;48172;53.374;10.722;2022-12-16T06:48:11;101379.91;;;17.68
62180;BMP280;48172;53.374;10.722;2022-12-16T06:50:56;101382.38;;;17.79
62180;BMP280;48172;53.374;10.722;2022-12-16T06:53:41;101389.19;;;17.87
62180;BMP280;48172;53.374;10.722;2022-12-16T06:56:26;101395.91;;;17.98
62180;BMP280;48172;53.374;10.722;2022-12-16T06:59:11;101411.59;;;18.07
62180;BMP280;48172;53.374;10.722;2022-12-16T07:01:56;101407.56;;;18.15
62180;BMP280;48172;53.374;10.722;2022-12-16T07:04:41;101411.63;;;18.23
62180;BMP280;48172;53.374;10.722;2022-12-16T07:07:26;101419.94;;;18.32
62180;BMP280;48172;53.374;10.722;2022-12-16T07:10:11;101420.56;;;18.40
62180;BMP280;48172;53.374;10.722;2022-12-16T07:12:58;101432.75;;;18.48
62180;BMP280;48172;53.374;10.722;2022-12-16T07:15:44;101433.34;;;18.56
62180;BMP280;48172;53.374;10.722;2022-12-16T07:18:30;101429.72;;;18.62
62180;BMP280;48172;53.374;10.722;2022-12-16T07:21:15;101441.16;;;18.70
62180;BMP280;48172;53.374;10.722;2022-12-16T07:24:00;101436.00;;;18.76
62180;BMP280;48172;53.374;10.722;2022-12-16T07:26:45;101445.91;;;18.82
62180;BMP280;48172;53.374;10.722;2022-12-16T07:29:30;101449.63;;;18.88
62180;BMP280;48172;53.374;10.722;2022-12-16T07:32:16;101458.78;;;18.94
62180;BMP280;48172;53.374;10.722;2022-12-16T07:35:01;101463.69;;;18.99
62180;BMP280;48172;53.374;10.722;2022-12-16T07:37:45;101472.81;;;19.06
62180;BMP280;48172;53.374;10.722;2022-12-16T07:40:30;101473.09;;;19.11
62180;BMP280;48172;53.374;10.722;2022-12-16T07:43:26;101489.59;;;19.17
62180;BMP280;48172;53.374;10.722;2022-12-16T07:46:11;101488.31;;;19.21
62180;BMP280;48172;53.374;10.722;2022-12-16T07:48:56;101491.69;;;19.25
62180;BMP280;48172;53.374;10.722;2022-12-16T07:51:41;101494.66;;;19.31
62180;BMP280;48172;53.374;10.722;2022-12-16T07:54:27;101501.53;;;19.36
62180;BMP280;48172;53.374;10.722;2022-12-16T07:57:12;101506.84;;;19.39
62180;BMP280;48172;53.374;10.722;2022-12-16T07:59:57;101520.28;;;19.43
62180;BMP280;48172;53.374;10.722;2022-12-16T08:02:42;101517.06;;;19.48
62180;BMP280;48172;53.374;10.722;2022-12-16T08:05:27;101519.69;;;19.51
62180;BMP280;48172;53.374;10.722;2022-12-16T08:08:12;101525.47;;;19.53
62180;BMP280;48172;53.374;10.722;2022-12-16T08:10:57;101521.50;;;19.58
62180;BMP280;48172;53.374;10.722;2022-12-16T08:13:42;101532.22;;;19.61
62180;BMP280;48172;53.374;10.722;2022-12-16T08:16:27;101538.75;;;19.64
62180;BMP280;48172;53.374;10.722;2022-12-16T08:19:12;101542.44;;;19.70
62180;BMP280;48172;53.374;10.722;2022-12-16T08:21:57;101541.59;;;19.73
62180;BMP280;48172;53.374;10.722;2022-12-16T08:24:42;101553.47;;;19.79
62180;BMP280;48172;53.374;10.722;2022-12-16T08:27:27;101559.97;;;19.82
62180;BMP280;48172;53.374;10.722;2022-12-16T08:30:12;101562.19;;;19.87
62180;BMP280;48172;53.374;10.722;2022-12-16T08:32:58;101566.31;;;19.91
62180;BMP280;48172;53.374;10.722;2022-12-16T08:35:46;101572.41;;;19.95
62180;BMP280;48172;53.374;10.722;2022-12-16T08:38:31;101582.75;;;20.01
62180;BMP280;48172;53.374;10.722;2022-12-16T08:41:17;101577.19;;;20.04
62180;BMP280;48172;53.374;10.722;2022-12-16T08:44:01;101580.59;;;20.08
62180;BMP280;48172;53.374;10.722;2022-12-16T08:47:03;101583.56;;;20.14
62180;BMP280;48172;53.374;10.722;2022-12-16T08:49:48;101588.09;;;20.17
62180;BMP280;48172;53.374;10.722;2022-12-16T08:52:34;101595.72;;;20.22
62180;BMP280;48172;53.374;10.722;2022-12-16T08:55:19;101599.56;;;20.24
62180;BMP280;48172;53.374;10.722;2022-12-16T08:58:04;101601.38;;;20.27
62180;BMP280;48172;53.374;10.722;2022-12-16T09:00:48;101613.66;;;20.32
62180;BMP280;48172;53.374;10.722;2022-12-16T09:03:35;101613.19;;;20.37
62180;BMP280;48172;53.374;10.722;2022-12-16T09:06:20;101615.00;;;20.40
62180;BMP280;48172;53.374;10.722;2022-12-16T09:09:07;101614.16;;;20.43
62180;BMP280;48172;53.374;10.722;2022-12-16T09:11:52;101621.41;;;20.46
62180;BMP280;48172;53.374;10.722;2022-12-16T09:14:37;101622.53;;;20.49
62180;BMP280;48172;53.374;10.722;2022-12-16T09:17:22;101634.06;;;20.53
62180;BMP280;48172;53.374;10.722;2022-12-16T09:20:07;101625.81;;;20.56
62180;BMP280;48172;53.374;10.722;2022-12-16T09:22:52;101629.28;;;20.57
62180;BMP280;48172;53.374;10.722;2022-12-16T09:25:37;101630.34;;;20.59
62180;BMP280;48172;53.374;10.722;2022-12-16T09:28:22;101640.06;;;20.60
62180;BMP280;48172;53.374;10.722;2022-12-16T09:31:07;101643.16;;;20.59
62180;BMP280;48172;53.374;10.722;2022-12-16T09:33:52;101631.56;;;20.58
62180;BMP280;48172;53.374;10.722;2022-12-16T09:36:37;101636.53;;;20.60
62180;BMP280;48172;53.374;10.722;2022-12-16T09:39:22;101645.47;;;20.60
62180;BMP280;48172;53.374;10.722;2022-12-16T09:42:17;101646.56;;;20.63
62180;BMP280;48172;53.374;10.722;2022-12-16T09:51:09;101649.50;;;20.69
62180;BMP280;48172;53.374;10.722;2022-12-16T09:53:55;101652.97;;;20.69
62180;BMP280;48172;53.374;10.722;2022-12-16T09:56:42;101659.97;;;20.70
62180;BMP280;48172;53.374;10.722;2022-12-16T09:59:37;101653.75;;;20.70
62180;BMP280;48172;53.374;10.722;2022-12-16T10:02:25;101658.75;;;20.71
62180;BMP280;48172;53.374;10.722;2022-12-16T10:05:12;101657.13;;;20.74
62180;BMP280;48172;53.374;10.722;2022-12-16T10:08:25;101664.50;;;20.73
62180;BMP280;48172;53.374;10.722;2022-12-16T10:12:41;101659.84;;;20.74
62180;BMP280;48172;53.374;10.722;2022-12-16T10:15:25;101659.84;;;20.74
62180;BMP280;48172;53.374;10.722;2022-12-16T10:18:39;101663.31;;;20.74
62180;BMP280;48172;53.374;10.722;2022-12-16T10:21:33;101659.44;;;20.75
62180;BMP280;48172;53.374;10.722;2022-12-16T10:24:36;101660.94;;;20.76
62180;BMP280;48172;53.374;10.722;2022-12-16T10:30:27;101661.25;;;20.78
62180;BMP280;48172;53.374;10.722;2022-12-16T10:33:13;101660.81;;;20.80
62180;BMP280;48172;53.374;10.722;2022-12-16T10:36:00;101660.09;;;20.79
62180;BMP280;48172;53.374;10.722;2022-12-16T10:38:50;101664.63;;;20.82
62180;BMP280;48172;53.374;10.722;2022-12-16T10:41:39;101670.50;;;20.81
62180;BMP280;48172;53.374;10.722;2022-12-16T10:44:54;101666.25;;;20.80
62180;BMP280;48172;53.374;10.722;2022-12-16T10:47:41;101665.53;;;20.79
62180;BMP280;48172;53.374;10.722;2022-12-16T10:50:26;101673.22;;;20.81
62180;BMP280;48172;53.374;10.722;2022-12-16T10:53:13;101673.22;;;20.81
62180;BMP280;48172;53.374;10.722;2022-12-16T10:59:07;101672.44;;;20.80
62180;BMP280;48172;53.374;10.722;2022-12-16T11:02:00;101670.16;;;20.79
62180;BMP280;48172;53.374;10.722;2022-12-16T11:04:47;101672.44;;;20.80
62180;BMP280;48172;53.374;10.722;2022-12-16T11:07:36;101671.25;;;20.81
62180;BMP280;48172;53.374;10.722;2022-12-16T11:10:30;101667.34;;;20.82
62180;BMP280;48172;53.374;10.722;2022-12-16T11:16:12;101663.78;;;20.85
62180;BMP280;48172;53.374;10.722;2022-12-16T11:18:58;101666.50;;;20.85
62180;BMP280;48172;53.374;10.722;2022-12-16T11:21:44;101663.44;;;20.83
62180;BMP280;48172;53.374;10.722;2022-12-16T11:24:30;101672.25;;;20.87
62180;BMP280;48172;53.374;10.722;2022-12-16T11:27:23;101662.16;;;20.88
62180;BMP280;48172;53.374;10.722;2022-12-16T11:32:59;101665.19;;;20.90
62180;BMP280;48172;53.374;10.722;2022-12-16T11:36:04;101675.63;;;20.91
62180;BMP280;48172;53.374;10.722;2022-12-16T11:38:51;101668.25;;;20.92
62180;BMP280;48172;53.374;10.722;2022-12-16T11:41:40;101668.97;;;20.92
62180;BMP280;48172;53.374;10.722;2022-12-16T11:44:28;101673.25;;;20.93
62180;BMP280;48172;53.374;10.722;2022-12-16T11:50:33;101686.69;;;20.97
62180;BMP280;48172;53.374;10.722;2022-12-16T11:56:27;101692.88;;;20.97
62180;BMP280;48172;53.374;10.722;2022-12-16T12:05:15;101683.16;;;21.00
62180;BMP280;48172;53.374;10.722;2022-12-16T12:08:17;101685.09;;;21.00
62180;BMP280;48172;53.374;10.722;2022-12-16T12:11:07;101693.56;;;21.02
62180;BMP280;48172;53.374;10.722;2022-12-16T12:14:00;101692.38;;;21.03
62180;BMP280;48172;53.374;10.722;2022-12-16T12:19:50;101700.13;;;21.04
62180;BMP280;48172;53.374;10.722;2022-12-16T12:22:39;101695.41;;;21.05
62180;BMP280;48172;53.374;10.722;2022-12-16T12:25:36;101688.47;;;21.04
62180;BMP280;48172;53.374;10.722;2022-12-16T12:28:46;101701.31;;;21.03
62180;BMP280;48172;53.374;10.722;2022-12-16T12:34:43;101701.59;;;21.05
62180;BMP280;48172;53.374;10.722;2022-12-16T12:37:35;101708.56;;;21.06
62180;BMP280;48172;53.374;10.722;2022-12-16T12:43:25;101711.63;;;21.08
62180;BMP280;48172;53.374;10.722;2022-12-16T12:46:40;101702.72;;;21.08
62180;BMP280;48172;53.374;10.722;2022-12-16T12:49:36;101704.97;;;21.09
62180;BMP280;48172;53.374;10.722;2022-12-16T12:52:29;101709.22;;;21.10
62180;BMP280;48172;53.374;10.722;2022-12-16T12:55:36;101710.00;;;21.11
62180;BMP280;48172;53.374;10.722;2022-12-16T12:58:24;101711.50;;;21.12
62180;BMP280;48172;53.374;10.722;2022-12-16T13:01:16;101708.78;;;21.12
62180;BMP280;48172;53.374;10.722;2022-12-16T13:04:12;101709.59;;;21.12
62180;BMP280;48172;53.374;10.722;2022-12-16T13:07:00;101712.31;;;21.12
62180;BMP280;48172;53.374;10.722;2022-12-16T13:16:02;101721.53;;;21.15
62180;BMP280;48172;53.374;10.722;2022-12-16T13:18:47;101724.22;;;21.15
62180;BMP280;48172;53.374;10.722;2022-12-16T13:24:42;101731.19;;;21.16
62180;BMP280;48172;53.374;10.722;2022-12-16T13:27:43;101733.91;;;21.16
62180;BMP280;48172;53.374;10.722;2022-12-16T13:30:30;101735.00;;;21.18
62180;BMP280;48172;53.374;10.722;2022-12-16T13:33:27;101750.88;;;21.20
62180;BMP280;48172;53.374;10.722;2022-12-16T13:36:15;101756.31;;;21.20
62180;BMP280;48172;53.374;10.722;2022-12-16T13:39:21;101754.78;;;21.19
62180;BMP280;48172;53.374;10.722;2022-12-16T13:42:46;101756.31;;;21.20
62180;BMP280;48172;53.374;10.722;2022-12-16T13:45:35;101753.59;;;21.20
62180;BMP280;48172;53.374;10.722;2022-12-16T13:48:33;101752.16;;;21.15
62180;BMP280;48172;53.374;10.722;2022-12-16T13:57:13;101763.03;;;21.03
62180;BMP280;48172;53.374;10.722;2022-12-16T13:59:59;101766.59;;;21.00
62180;BMP280;48172;53.374;10.722;2022-12-16T14:02:49;101761.69;;;20.94
62180;BMP280;48172;53.374;10.722;2022-12-16T14:05:41;101771.47;;;20.92
62180;BMP280;48172;53.374;10.722;2022-12-16T14:08:31;101774.19;;;20.92
62180;BMP280;48172;53.374;10.722;2022-12-16T14:11:32;101773.41;;;20.91
62180;BMP280;48172;53.374;10.722;2022-12-16T14:14:25;101775.69;;;20.93
62180;BMP280;48172;53.374;10.722;2022-12-16T14:17:18;101773.31;;;20.95
62180;BMP280;48172;53.374;10.722;2022-12-16T14:20:26;101785.72;;;20.96
62180;BMP280;48172;53.374;10.722;2022-12-16T14:26:24;101778.97;;;21.01
62180;BMP280;48172;53.374;10.722;2022-12-16T14:29:27;101792.91;;;21.03
62180;BMP280;48172;53.374;10.722;2022-12-16T14:32:28;101797.47;;;21.06
62180;BMP280;48172;53.374;10.722;2022-12-16T14:38:24;101803.25;;;21.08
62180;BMP280;48172;53.374;10.722;2022-12-16T14:41:22;101807.50;;;21.09
62180;BMP280;48172;53.374;10.722;2022-12-16T14:44:22;101815.97;;;21.11
62180;BMP280;48172;53.374;10.722;2022-12-16T14:47:16;101822.91;;;21.12
62180;BMP280;48172;53.374;10.722;2022-12-16T14:50:03;101822.50;;;21.13
62180;BMP280;48172;53.374;10.722;2022-12-16T14:53:14;101825.97;;;21.14
62180;BMP280;48172;53.374;10.722;2022-12-16T15:01:54;101818.16;;;21.16
62180;BMP280;48172;53.374;10.722;2022-12-16T15:04:41;101835.56;;;21.18
62180;BMP280;48172;53.374;10.722;2022-12-16T15:07:28;101833.59;;;21.19
62180;BMP280;48172;53.374;10.722;2022-12-16T15:10:18;101843.28;;;21.20
62180;BMP280;48172;53.374;10.722;2022-12-16T15:13:13;101850.25;;;21.21
62180;BMP280;48172;53.374;10.722;2022-12-16T15:16:00;101847.84;;;21.23
62180;BMP280;48172;53.374;10.722;2022-12-16T15:19:00;101856.78;;;21.23
62180;BMP280;48172;53.374;10.722;2022-12-16T15:21:46;101851.66;;;21.25
62180;BMP280;48172;53.374;10.722;2022-12-16T15:24:36;101852.41;;;21.26
62180;BMP280;48172;53.374;10.722;2022-12-16T15:27:26;101863.63;;;21.28
62180;BMP280;48172;53.374;10.722;2022-12-16T15:33:29;101871.78;;;21.28
62180;BMP280;48172;53.374;10.722;2022-12-16T15:36:33;101867.88;;;21.29
62180;BMP280;48172;53.374;10.722;2022-12-16T15:39:34;101874.41;;;21.31
62180;BMP280;48172;53.374;10.722;2022-12-16T15:42:24;101876.38;;;21.31
62180;BMP280;48172;53.374;10.722;2022-12-16T15:48:39;101877.91;;;21.32
62180;BMP280;48172;53.374;10.722;2022-12-16T15:51:20;101886.81;;;21.33
62180;BMP280;48172;53.374;10.722;2022-12-16T15:54:15;101890.59;;;21.35
62180;BMP280;48172;53.374;10.722;2022-12-16T15:57:00;101889.84;;;21.35
62180;BMP280;48172;53.374;10.722;2022-12-16T15:59:57;101900.72;;;21.35
62180;BMP280;48172;53.374;10.722;2022-12-16T16:02:46;101898.75;;;21.35
62180;BMP280;48172;53.374;10.722;2022-12-16T16:05:34;101897.59;;;21.36
62180;BMP280;48172;53.374;10.722;2022-12-16T16:08:19;101903.78;;;21.37
62180;BMP280;48172;53.374;10.722;2022-12-16T16:11:05;101914.22;;;21.38
62180;BMP280;48172;53.374;10.722;2022-12-16T16:13:50;101925.09;;;21.38
62180;BMP280;48172;53.374;10.722;2022-12-16T16:16:39;101923.13;;;21.39
62180;BMP280;48172;53.374;10.722;2022-12-16T16:19:25;101927.38;;;21.40
62180;BMP280;48172;53.374;10.722;2022-12-16T16:22:12;101931.28;;;21.39
62180;BMP280;48172;53.374;10.722;2022-12-16T16:24:58;101935.13;;;21.41
62180;BMP280;48172;53.374;10.722;2022-12-16T16:27:43;101933.16;;;21.42
62180;BMP280;48172;53.374;10.722;2022-12-16T16:30:29;101936.63;;;21.42
62180;BMP280;48172;53.374;10.722;2022-12-16T16:33:14;101943.19;;;21.45
62180;BMP280;48172;53.374;10.722;2022-12-16T16:35:59;101947.84;;;21.44
62180;BMP280;48172;53.374;10.722;2022-12-16T16:38:45;101947.84;;;21.44
62180;BMP280;48172;53.374;10.722;2022-12-16T16:41:29;101950.56;;;21.44
62180;BMP280;48172;53.374;10.722;2022-12-16T16:44:15;101953.28;;;21.44
62180;BMP280;48172;53.374;10.722;2022-12-16T16:47:00;101950.13;;;21.46
62180;BMP280;48172;53.374;10.722;2022-12-16T16:49:46;101945.47;;;21.46
62180;BMP280;48172;53.374;10.722;2022-12-16T16:52:32;101953.63;;;21.46
62180;BMP280;48172;53.374;10.722;2022-12-16T16:55:20;101959.06;;;21.46
62180;BMP280;48172;53.374;10.722;2022-12-16T16:58:15;101954.38;;;21.47
62180;BMP280;48172;53.374;10.722;2022-12-16T17:01:04;101956.34;;;21.46